Weather reports worldwide

Advertisment
Segovia, Spain (8213): temperature & dewpoint: 12.01.2021 07:00:00 - 18.01.2021 07:00:00 (CET)Segovia, Spain (8213): wind speed: 12.01.2021 07:00:00 - 18.01.2021 07:00:00 (CET)Segovia, Spain (8213): wind direction: 12.01.2021 07:00:00 - 18.01.2021 07:00:00 (CET)Segovia, Spain (8213): visibility: 12.01.2021 07:00:00 - 18.01.2021 07:00:00 (CET)Segovia, Spain (8213): precipitation: 12.01.2021 07:00:00 - 18.01.2021 07:00:00 (CET)
Date & Time tt [°C] td [°C] ff [km/h] ff [kn] dd vv [km] rr [mm]
18.01.2021 07:00:00 -0,3 -2,0 4 2 ENE 18 -
18.01.2021 06:00:00 -0,1 -1,8 4 2 E 19 0,0
18.01.2021 05:00:00 0,1 -1,7 5 3 ENE 19 0,0
18.01.2021 04:00:00 0,2 -2,7 5 3 ENE 19 -
18.01.2021 03:00:00 0,2 -3,5 8 4 E 18 0,0
18.01.2021 02:00:00 0,6 -4,1 5 3 E 18 0,0
18.01.2021 01:00:00 0,8 -3,7 5 3 E 17 -
18.01.2021 00:00:00 1,2 -4,3 4 2 ENE 14 0,0
17.01.2021 23:00:00 1,1 -5,0 4 2 ENE 15 0,0
17.01.2021 22:00:00 1,7 -4,8 5 3 ENE 14 -
17.01.2021 21:00:00 2,1 -4,9 5 3 ENE 14 0,0
17.01.2021 20:00:00 3,0 -4,7 5 3 E 15 0,0
17.01.2021 19:00:00 4,7 -5,4 4 2 WSW 19 -
17.01.2021 18:00:00 7,0 -3,3 5 3 SW 18 0,0
17.01.2021 17:00:00 8,6 -8,9 5 3 W 19 0,0
17.01.2021 16:00:00 9,1 -8,5 5 3 NW 19 -
17.01.2021 15:00:00 9,3 -7,4 8 4 NW 19 0,0
17.01.2021 14:00:00 9,2 -8,4 9 5 WNW 19 0,0
17.01.2021 13:00:00 8,9 -7,8 9 5 W 18 -
17.01.2021 12:00:00 8,5 -8,6 4 2 W 18 0,0
17.01.2021 11:00:00 6,3 -6,7 2 1 E 19 0,0
17.01.2021 10:00:00 2,7 -8,1 4 2 ESE 19 -
17.01.2021 09:00:00 0,2 -8,5 8 4 ENE 19 0,0
17.01.2021 08:00:00 -0,3 -8,3 9 5 ENE 19 0,0
17.01.2021 07:00:00 -0,6 -8,8 5 3 E 19 -
17.01.2021 06:00:00 -0,5 -8,0 8 4 ENE 19 0,0
17.01.2021 05:00:00 -0,1 -8,3 5 3 ENE 19 0,0
17.01.2021 04:00:00 0,5 -8,7 9 5 ENE 19 -
17.01.2021 03:00:00 0,4 -8,1 9 5 ENE 19 0,0
17.01.2021 02:00:00 0,1 -7,0 8 4 ENE 18 0,0
17.01.2021 01:00:00 0,3 -6,4 5 3 E 18 -
17.01.2021 00:00:00 0,6 -6,5 4 2 E 18 0,0
16.01.2021 23:00:00 0,8 -6,1 9 5 ENE 16 0,0
16.01.2021 22:00:00 0,3 -4,2 8 4 E 14 -
16.01.2021 21:00:00 1,1 -4,0 5 3 E 15 0,0
16.01.2021 20:00:00 1,7 -1,4 5 3 ENE 11 0,0
16.01.2021 19:00:00 2,2 -1,6 5 3 SSE 13 -
16.01.2021 18:00:00 4,4 -1,0 5 3 SW 14 0,0
16.01.2021 17:00:00 6,6 -0,4 8 4 W 18 0,0
16.01.2021 16:00:00 7,5 0,5 9 5 W 16 -
16.01.2021 15:00:00 7,2 -2,3 8 4 W 19 0,0
16.01.2021 14:00:00 5,8 -3,1 2 1 W 19 0,0
16.01.2021 13:00:00 3,4 -2,2 8 4 WSW 18 -
16.01.2021 12:00:00 1,4 -2,4 9 5 WSW 17 0,0
16.01.2021 11:00:00 2,0 -3,1 5 3 W 17 0,0
16.01.2021 10:00:00 -0,8 -4,5 4 2 ENE 16 -
16.01.2021 09:00:00 -4,2 -6,5 4 2 W 16 0,0
16.01.2021 08:00:00 -4,7 -6,8 2 1 N 16 0,0
16.01.2021 07:00:00 -3,7 -6,5 4 2 E 18 -
16.01.2021 06:00:00 -3,9 -6,5 2 1 ENE 17 0,0
16.01.2021 05:00:00 -3,7 -6,2 4 2 NNW 16 0,0
16.01.2021 04:00:00 -2,9 -5,9 8 4 E 18 -
16.01.2021 03:00:00 -2,5 -5,3 4 2 ENE 16 0,0
16.01.2021 02:00:00 -2,8 -5,3 8 4 ENE 17 0,0
16.01.2021 01:00:00 -2,6 -4,3 2 1 W 12 -
16.01.2021 00:00:00 -1,9 -4,1 2 1 E 13 0,0
15.01.2021 23:00:00 -1,2 -3,2 0 0 N 13 0,0
15.01.2021 22:00:00 -0,9 -2,8 2 1 SW 14 -
15.01.2021 21:00:00 0,3 -3,1 4 2 ENE 15 0,0
15.01.2021 20:00:00 1,3 -1,9 8 4 NE 14 0,0
15.01.2021 19:00:00 1,9 -1,0 9 5 NNE 14 -
15.01.2021 18:00:00 3,4 -1,0 8 4 N 17 0,0
15.01.2021 17:00:00 5,7 -2,4 13 7 NNE 19 0,0
15.01.2021 16:00:00 6,5 -2,7 13 7 NNE 19 -
15.01.2021 15:00:00 6,7 -1,0 11 6 NNE 19 0,0
15.01.2021 14:00:00 6,1 -0,4 11 6 NNE 17 0,0
15.01.2021 13:00:00 6,1 -1,1 13 7 NE 10 -
15.01.2021 12:00:00 5,4 -1,3 11 6 NE 18 0,0
15.01.2021 11:00:00 4,0 -0,8 13 7 NE 18 0,0
15.01.2021 10:00:00 0,5 -2,7 8 4 E 18 -
15.01.2021 09:00:00 -0,5 -3,5 8 4 E 18 0,0
15.01.2021 08:00:00 0,9 -0,6 13 7 ENE 16 0,0
15.01.2021 07:00:00 0,6 -0,9 8 4 ENE 18 -
15.01.2021 06:00:00 0,1 -1,0 8 4 ENE 17 0,0
15.01.2021 05:00:00 -0,2 -1,9 5 3 E 18 0,0
15.01.2021 04:00:00 0,1 -1,8 8 4 E 17 -
15.01.2021 03:00:00 0,7 -0,6 2 1 NNE 13 0,0
15.01.2021 02:00:00 1,0 -1,1 2 1 SW 11 0,0
15.01.2021 01:00:00 1,1 -0,4 4 2 NE 14 -
15.01.2021 00:00:00 -0,1 -2,3 2 1 W 12 0,0
14.01.2021 23:00:00 -0,4 -3,6 4 2 NE 9 0,0
14.01.2021 22:00:00 -0,6 -4,3 4 2 SE 12 -
14.01.2021 21:00:00 0,0 -3,7 4 2 WNW 11 0,0
14.01.2021 20:00:00 1,0 -4,2 4 2 N 13 0,0
14.01.2021 19:00:00 1,9 -5,1 2 1 ENE 15 -
14.01.2021 18:00:00 2,9 -4,6 4 2 ENE 17 0,0
14.01.2021 17:00:00 3,3 -4,9 5 3 N 18 0,0
14.01.2021 16:00:00 5,9 -3,7 8 4 W 18 -
14.01.2021 15:00:00 6,8 -3,7 5 3 WSW 19 0,0
14.01.2021 14:00:00 5,6 -4,0 5 3 W 18 0,0
14.01.2021 13:00:00 3,9 -4,3 8 4 W 20 -
14.01.2021 12:00:00 3,1 -5,8 2 1 WSW 18 0,0
14.01.2021 11:00:00 2,1 -6,0 4 2 SW 18 0,0
14.01.2021 10:00:00 -1,1 -6,9 2 1 WSW 20 -
14.01.2021 09:00:00 -3,6 -7,6 4 2 E 15 0,0
14.01.2021 08:00:00 -3,1 -7,8 4 2 E 17 0,0
14.01.2021 07:00:00 -2,6 -7,3 5 3 ENE 19 -
14.01.2021 06:00:00 -3,3 -7,1 8 4 E 17 0,0
14.01.2021 05:00:00 -2,8 -6,8 5 3 E 19 0,0
14.01.2021 04:00:00 -2,7 -6,2 4 2 ENE 16 -
14.01.2021 03:00:00 -2,5 -5,6 4 2 ENE 16 0,0
14.01.2021 02:00:00 -2,1 -5,4 4 2 E 15 0,0
14.01.2021 01:00:00 -1,8 -5,3 5 3 ENE 16 -
14.01.2021 00:00:00 -1,2 -4,7 4 2 ENE 14 0,0
13.01.2021 23:00:00 -1,2 -4,5 4 2 E 13 0,0
13.01.2021 22:00:00 -0,7 -4,1 5 3 ENE 13 -
13.01.2021 21:00:00 0,0 -3,9 5 3 ENE 12 0,0
13.01.2021 20:00:00 0,8 -4,4 8 4 ESE 12 0,0
13.01.2021 19:00:00 1,7 -5,5 4 2 SW 16 -
13.01.2021 18:00:00 3,7 -4,3 8 4 WSW 16 0,0
13.01.2021 17:00:00 5,2 -3,9 8 4 W 19 0,0
13.01.2021 16:00:00 5,5 -3,6 8 4 W 18 -
13.01.2021 15:00:00 6,0 -4,2 8 4 W 19 0,0
13.01.2021 14:00:00 5,3 -4,6 5 3 W 19 0,0
13.01.2021 13:00:00 4,9 -4,9 8 4 W 20 -
13.01.2021 12:00:00 4,6 -3,7 5 3 W 18 0,0
13.01.2021 11:00:00 3,4 -5,3 4 2 E 17 0,0
13.01.2021 10:00:00 -0,2 -5,6 4 2 ENE 20 -
13.01.2021 09:00:00 -2,5 -6,9 2 1 ESE 17 0,0
13.01.2021 08:00:00 -2,6 -6,6 5 3 ENE 18 0,0
13.01.2021 07:00:00 -2,9 -6,7 5 3 ENE 18 -
13.01.2021 06:00:00 -2,6 -7,0 5 3 E 19 0,0
13.01.2021 05:00:00 -2,5 -6,9 4 2 E 19 0,0
13.01.2021 04:00:00 -2,5 -6,9 5 3 ENE 19 -
13.01.2021 03:00:00 -2,5 -6,7 5 3 E 18 0,0
13.01.2021 02:00:00 -2,4 -5,9 4 2 E 18 0,0
13.01.2021 01:00:00 -2,1 -5,8 5 3 ENE 17 -
13.01.2021 00:00:00 -1,9 -5,2 5 3 E 15 0,0
12.01.2021 23:00:00 -2,0 -5,2 4 2 E 13 0,0
12.01.2021 22:00:00 -2,1 -4,8 5 3 ESE 9 -
12.01.2021 21:00:00 -1,5 -4,2 4 2 ENE 11 0,0
12.01.2021 20:00:00 -1,3 -4,5 4 2 E 11 0,0
12.01.2021 19:00:00 -0,4 -4,3 4 2 SSW 14 -
12.01.2021 18:00:00 1,5 -4,0 2 1 W 14 0,0
12.01.2021 17:00:00 1,8 -4,1 5 3 W 16 0,0
12.01.2021 16:00:00 2,5 -3,6 9 5 W 16 -
12.01.2021 15:00:00 2,6 -3,5 5 3 W 17 0,0
12.01.2021 14:00:00 1,5 -3,8 8 4 W 17 0,0
12.01.2021 13:00:00 1,0 -4,1 5 3 W 16 -
12.01.2021 12:00:00 -0,4 -4,5 5 3 W 16 0,0
12.01.2021 11:00:00 -1,5 -4,8 5 3 WSW 17 0,0
12.01.2021 10:00:00 -3,4 -5,6 4 2 ESE 12 -
12.01.2021 09:00:00 -6,5 -8,8 5 3 ENE 15 0,0
12.01.2021 08:00:00 -6,6 -8,4 4 2 ENE 14 0,0
12.01.2021 07:00:00 -6,8 -8,8 5 3 ENE 13 -

tt = temperature
td = dewpoint
ff = wind speed
dd = wind direction
vv = visibility
rr = precipitation

Next stations